createdAt,value
2022-12-04T00:01:15.863Z,39.47
2022-12-04T00:03:42.436Z,47.35
2022-12-04T00:06:10.478Z,47.63
2022-12-04T00:08:37.633Z,52.17
2022-12-04T00:11:05.646Z,48.00
2022-12-04T00:13:32.533Z,49.88
2022-12-04T00:15:59.275Z,51.63
2022-12-04T00:18:25.773Z,53.47
2022-12-04T00:20:52.106Z,48.03
2022-12-04T00:23:18.591Z,58.03
2022-12-04T00:25:48.503Z,48.90
2022-12-04T00:28:18.784Z,46.13
2022-12-04T00:30:45.905Z,47.97
2022-12-04T00:33:13.464Z,50.90
2022-12-04T00:35:40.313Z,54.33
2022-12-04T00:38:06.746Z,53.88
2022-12-04T00:40:33.121Z,51.92
2022-12-04T00:42:59.425Z,49.08
2022-12-04T00:45:25.785Z,35.10
2022-12-04T00:47:52.220Z,55.65
2022-12-04T00:50:18.673Z,52.83
2022-12-04T00:52:45.062Z,52.88
2022-12-04T00:55:11.690Z,51.72
2022-12-04T00:57:38.019Z,46.72
2022-12-04T01:00:05.783Z,52.42
2022-12-04T01:02:32.207Z,53.95
2022-12-04T01:05:01.151Z,58.15
2022-12-04T01:07:27.681Z,47.90
2022-12-04T01:09:54.388Z,56.65
2022-12-04T01:12:21.164Z,52.17
2022-12-04T01:14:47.708Z,46.25
2022-12-04T01:17:14.159Z,52.42
2022-12-04T01:19:40.603Z,51.13
2022-12-04T01:22:06.917Z,39.25
2022-12-04T01:24:33.244Z,46.17
2022-12-04T01:26:59.609Z,48.88
2022-12-04T01:29:25.940Z,42.25
2022-12-04T01:31:52.410Z,49.28
2022-12-04T01:34:18.808Z,52.28
2022-12-04T01:36:45.160Z,50.55
2022-12-04T01:39:11.995Z,52.75
2022-12-04T01:41:38.357Z,55.00
2022-12-04T01:44:13.884Z,52.53
2022-12-04T01:46:42.113Z,48.65
2022-12-04T01:49:14.449Z,54.22
2022-12-04T01:51:45.764Z,54.53
2022-12-04T01:54:21.637Z,55.83
2022-12-04T01:57:00.442Z,55.00
2022-12-04T01:59:31.790Z,49.40
2022-12-04T02:02:09.410Z,53.90
2022-12-04T02:04:36.846Z,52.50
2022-12-04T02:07:04.056Z,54.45
2022-12-04T02:09:31.934Z,56.75
2022-12-04T02:12:14.064Z,53.67
2022-12-04T02:14:56.659Z,53.83
2022-12-04T02:17:33.567Z,38.42
2022-12-04T02:20:21.448Z,41.50
2022-12-04T02:23:09.111Z,50.85
2022-12-04T02:25:51.403Z,54.38
2022-12-04T02:28:25.632Z,40.90
2022-12-04T02:30:57.582Z,48.35
2022-12-04T02:33:46.751Z,53.05
2022-12-04T02:36:19.074Z,47.47
2022-12-04T02:38:55.228Z,55.03
2022-12-04T02:41:27.460Z,56.88
2022-12-04T02:44:04.604Z,57.15
2022-12-04T02:46:37.337Z,48.05
2022-12-04T02:49:11.512Z,59.28
2022-12-04T02:51:41.173Z,57.20
2022-12-04T02:54:12.637Z,53.13
2022-12-04T02:56:43.905Z,57.83
2022-12-04T02:59:17.751Z,45.45
2022-12-04T03:01:49.563Z,54.97
2022-12-04T03:04:22.430Z,44.50
2022-12-04T03:06:58.346Z,48.70
2022-12-04T03:09:56.269Z,58.03
2022-12-04T03:12:34.295Z,54.78
2022-12-04T03:15:11.164Z,39.50
2022-12-04T03:17:49.995Z,59.15
2022-12-04T03:20:17.455Z,54.85
2022-12-04T03:22:50.171Z,32.05
2022-12-04T03:25:16.624Z,36.80
2022-12-04T03:28:09.658Z,57.50
2022-12-04T03:30:43.044Z,53.42
2022-12-04T03:33:19.109Z,59.65
2022-12-04T03:36:44.214Z,55.42
2022-12-04T03:39:22.873Z,45.63
2022-12-04T03:42:10.274Z,55.08
2022-12-04T03:44:57.993Z,51.85
2022-12-04T03:47:51.613Z,57.17
2022-12-04T03:50:31.166Z,51.47
2022-12-04T03:53:17.243Z,58.70
2022-12-04T03:55:51.575Z,55.15
2022-12-04T03:58:23.574Z,46.30
2022-12-04T04:00:53.078Z,64.28
2022-12-04T04:03:24.070Z,47.15
2022-12-04T04:08:26.654Z,52.10
2022-12-04T04:11:02.840Z,26.08
2022-12-04T04:13:56.625Z,57.72
2022-12-04T04:16:46.496Z,41.22
2022-12-04T04:19:34.724Z,42.65
2022-12-04T04:22:22.993Z,51.60
2022-12-04T04:24:59.316Z,54.75
2022-12-04T04:27:25.606Z,53.58
2022-12-04T04:29:52.889Z,49.35
2022-12-04T04:32:25.175Z,53.10
2022-12-04T04:35:01.021Z,51.25
2022-12-04T04:37:30.224Z,50.25
2022-12-04T04:40:00.239Z,47.17
2022-12-04T04:42:33.711Z,55.05
2022-12-04T04:45:08.196Z,47.65
2022-12-04T04:47:47.597Z,48.63
2022-12-04T04:50:16.594Z,56.22
2022-12-04T04:52:48.916Z,48.22
2022-12-04T04:55:17.823Z,50.33
2022-12-04T04:57:44.314Z,46.28
2022-12-04T05:00:13.934Z,37.78
2022-12-04T05:02:40.426Z,51.97
2022-12-04T05:05:07.662Z,42.83
2022-12-04T05:07:34.068Z,49.17
2022-12-04T05:10:00.478Z,45.22
2022-12-04T05:12:26.886Z,36.80
2022-12-04T05:14:53.224Z,49.50
2022-12-04T05:17:19.531Z,53.00
2022-12-04T05:19:56.282Z,34.38
2022-12-04T05:22:27.879Z,47.22
2022-12-04T05:24:54.795Z,49.10
2022-12-04T05:27:22.317Z,43.20
2022-12-04T05:29:48.819Z,42.17
2022-12-04T05:32:15.320Z,52.35
2022-12-04T05:34:41.676Z,48.72
2022-12-04T05:37:07.984Z,51.13
2022-12-04T05:39:35.434Z,48.38
2022-12-04T05:42:01.733Z,49.33
2022-12-04T05:44:28.082Z,53.42
2022-12-04T05:46:54.476Z,43.88
2022-12-04T05:49:20.811Z,47.45
2022-12-04T05:51:47.126Z,48.30
2022-12-04T05:54:13.431Z,51.28
2022-12-04T05:56:39.719Z,51.97
2022-12-04T05:59:06.015Z,40.67
2022-12-04T06:01:32.458Z,49.33
2022-12-04T06:03:59.236Z,42.28
2022-12-04T06:06:26.300Z,45.70
2022-12-04T06:08:55.429Z,48.13
2022-12-04T06:11:25.616Z,39.55
2022-12-04T06:13:52.584Z,45.23
2022-12-04T06:16:22.272Z,45.05
2022-12-04T06:18:51.556Z,50.75
2022-12-04T06:21:18.760Z,41.40
2022-12-04T06:23:45.469Z,46.38
2022-12-04T06:26:11.943Z,40.13
2022-12-04T06:28:38.701Z,43.55
2022-12-04T06:31:08.563Z,48.58
2022-12-04T06:33:35.977Z,41.50
2022-12-04T06:36:05.315Z,45.50
2022-12-04T06:38:32.647Z,43.45
2022-12-04T06:40:59.320Z,45.90
2022-12-04T06:43:25.728Z,42.50
2022-12-04T06:46:10.928Z,46.53
2022-12-04T06:48:38.141Z,42.72
2022-12-04T06:51:10.194Z,42.45
2022-12-04T06:53:36.842Z,43.22
2022-12-04T06:56:06.761Z,43.97
2022-12-04T06:58:34.187Z,35.83
2022-12-04T07:01:10.120Z,41.05
2022-12-04T07:03:37.769Z,39.15
2022-12-04T07:06:22.091Z,43.88
2022-12-04T07:08:51.798Z,46.28
2022-12-04T07:11:19.781Z,40.05
2022-12-04T07:13:46.086Z,39.45
2022-12-04T07:16:14.034Z,38.25
2022-12-04T07:18:40.806Z,42.17
2022-12-04T07:21:09.602Z,45.92
2022-12-04T07:23:37.102Z,40.25
2022-12-04T07:26:08.201Z,38.95
2022-12-04T07:31:10.720Z,33.05
2022-12-04T07:33:37.916Z,26.55
2022-12-04T07:36:07.318Z,29.65
2022-12-04T07:38:37.302Z,35.65
2022-12-04T07:41:06.245Z,35.05
2022-12-04T07:43:33.345Z,40.88
2022-12-04T07:46:04.905Z,34.05
2022-12-04T07:48:33.442Z,34.70
2022-12-04T07:51:14.163Z,30.52
2022-12-04T07:53:41.033Z,38.17
2022-12-04T07:56:08.802Z,34.83
2022-12-04T07:58:35.260Z,32.42
2022-12-04T08:01:22.490Z,38.20
2022-12-04T08:03:51.891Z,35.28
2022-12-04T08:06:20.264Z,31.50
2022-12-04T08:08:47.445Z,35.63
2022-12-04T08:11:18.077Z,38.10
2022-12-04T08:13:45.115Z,34.67
2022-12-04T08:16:12.802Z,32.85
2022-12-04T08:18:40.174Z,35.97
2022-12-04T08:21:12.113Z,35.83
2022-12-04T08:23:43.440Z,34.65
2022-12-04T08:26:11.859Z,40.72
2022-12-04T08:28:40.557Z,39.50
2022-12-04T08:31:12.803Z,39.97
2022-12-04T08:33:41.082Z,38.63
2022-12-04T08:36:13.397Z,33.40
2022-12-04T08:38:39.974Z,38.53
2022-12-04T08:41:14.330Z,41.78
2022-12-04T08:43:41.304Z,38.17
2022-12-04T08:46:11.368Z,22.67
2022-12-04T08:48:39.369Z,31.52
2022-12-04T08:51:08.084Z,37.75
2022-12-04T08:53:38.795Z,32.80
2022-12-04T08:56:05.347Z,37.50
2022-12-04T08:58:31.859Z,24.42
2022-12-04T09:01:10.907Z,27.10
2022-12-04T09:03:37.644Z,33.83
2022-12-04T09:06:05.702Z,30.75
2022-12-04T09:08:32.849Z,34.83
2022-12-04T09:11:08.305Z,25.15
2022-12-04T09:13:34.875Z,25.42
2022-12-04T09:16:05.302Z,29.73
2022-12-04T09:18:31.880Z,26.40
2022-12-04T09:21:00.583Z,27.40
2022-12-04T09:23:27.683Z,23.25
2022-12-04T09:25:54.503Z,23.55
2022-12-04T09:28:21.007Z,18.27
2022-12-04T09:30:57.558Z,23.38
2022-12-04T09:33:24.103Z,24.08
2022-12-04T09:35:50.508Z,27.42
2022-12-04T09:38:16.821Z,20.13
2022-12-04T09:40:55.931Z,22.05
2022-12-04T09:43:39.126Z,23.17
2022-12-04T09:46:14.882Z,18.67
2022-12-04T09:48:45.370Z,24.63
2022-12-04T09:51:18.792Z,26.45
2022-12-04T09:53:54.659Z,21.30
2022-12-04T09:56:24.776Z,23.35
2022-12-04T09:59:00.039Z,26.33
2022-12-04T10:01:43.137Z,20.95
2022-12-04T10:04:11.573Z,22.13
2022-12-04T10:06:47.574Z,22.30
2022-12-04T10:09:23.745Z,21.90
2022-12-04T10:12:16.057Z,16.23
2022-12-04T10:14:55.638Z,20.63
2022-12-04T10:17:37.293Z,20.80
2022-12-04T10:20:22.481Z,21.27
2022-12-04T10:23:13.744Z,19.38
2022-12-04T10:25:42.031Z,19.40
2022-12-04T10:28:30.300Z,21.27
2022-12-04T10:31:01.047Z,22.08
2022-12-04T10:33:37.048Z,23.08
2022-12-04T10:36:04.308Z,18.65
2022-12-04T10:38:46.153Z,21.77
2022-12-04T10:41:26.953Z,22.33
2022-12-04T10:43:53.382Z,21.35
2022-12-04T10:46:27.437Z,18.17
2022-12-04T10:49:09.470Z,18.50
2022-12-04T10:51:41.098Z,19.05
2022-12-04T10:54:43.224Z,20.65
2022-12-04T10:57:13.766Z,15.02
2022-12-04T10:59:53.008Z,20.80
2022-12-04T11:02:25.696Z,18.95
2022-12-04T11:05:00.229Z,15.20
2022-12-04T11:07:29.196Z,16.05
2022-12-04T11:10:03.262Z,12.80
2022-12-04T11:12:30.565Z,15.40
2022-12-04T11:15:14.657Z,21.27
2022-12-04T11:17:41.125Z,16.77
2022-12-04T11:20:27.970Z,15.40
2022-12-04T11:22:59.410Z,20.83
2022-12-04T11:25:30.517Z,20.80
2022-12-04T11:30:35.058Z,19.25
2022-12-04T11:33:03.298Z,17.15
2022-12-04T11:35:31.473Z,14.60
2022-12-04T11:38:15.603Z,13.38
2022-12-04T11:40:52.190Z,16.63
2022-12-04T11:43:20.403Z,18.15
2022-12-04T11:46:07.518Z,19.92
2022-12-04T11:48:45.200Z,16.48
2022-12-04T11:51:14.551Z,15.50
2022-12-04T11:53:50.475Z,23.30
2022-12-04T11:56:45.437Z,20.10
2022-12-04T11:59:42.773Z,17.38
2022-12-04T12:02:24.411Z,18.30
2022-12-04T12:05:19.986Z,13.45
2022-12-04T12:07:46.325Z,18.42
2022-12-04T12:10:25.628Z,21.52
2022-12-04T12:13:19.308Z,22.05
2022-12-04T12:16:03.948Z,17.33
2022-12-04T12:18:41.895Z,16.45
2022-12-04T12:21:37.557Z,12.95
2022-12-04T12:24:19.546Z,19.65
2022-12-04T12:27:01.727Z,18.73
2022-12-04T12:29:56.085Z,17.73
2022-12-04T12:32:53.766Z,22.88
2022-12-04T12:35:41.428Z,16.88
2022-12-04T12:38:17.989Z,18.60
2022-12-04T12:40:57.230Z,12.68
2022-12-04T12:43:37.459Z,17.17
2022-12-04T12:46:15.553Z,18.37
2022-12-04T12:49:02.243Z,20.10
2022-12-04T12:51:52.951Z,13.23
2022-12-04T12:54:43.955Z,18.55
2022-12-04T12:57:44.992Z,18.80
2022-12-04T13:00:22.764Z,23.08
2022-12-04T13:03:11.612Z,16.17
2022-12-04T13:05:43.231Z,20.17
2022-12-04T13:08:21.050Z,15.82
2022-12-04T13:11:09.288Z,16.48
2022-12-04T13:13:42.608Z,18.40
2022-12-04T13:16:14.262Z,17.23
2022-12-04T13:18:46.388Z,18.63
2022-12-04T13:21:30.868Z,20.38
2022-12-04T13:24:17.692Z,17.38
2022-12-04T13:27:16.442Z,17.52
2022-12-04T13:30:04.969Z,20.25
2022-12-04T13:32:40.121Z,15.35
2022-12-04T13:35:31.190Z,17.70
2022-12-04T13:38:12.408Z,16.40
2022-12-04T13:43:36.499Z,14.70
2022-12-04T13:46:22.773Z,16.10
2022-12-04T13:48:49.344Z,16.65
2022-12-04T13:51:54.320Z,18.48
2022-12-04T13:54:33.563Z,20.38
2022-12-04T13:57:15.206Z,17.73
2022-12-04T13:59:42.308Z,19.67
2022-12-04T14:02:29.785Z,17.42
2022-12-04T14:05:01.466Z,17.90
2022-12-04T14:07:30.572Z,17.77
2022-12-04T14:09:59.846Z,17.83
2022-12-04T14:12:30.111Z,17.55
2022-12-04T14:14:59.331Z,14.57
2022-12-04T14:17:36.983Z,20.80
2022-12-04T14:20:28.577Z,19.25
2022-12-04T14:22:55.189Z,20.13
2022-12-04T14:25:31.960Z,17.15
2022-12-04T14:27:58.310Z,18.25
2022-12-04T14:30:44.127Z,12.60
2022-12-04T14:33:20.239Z,13.23
2022-12-04T14:36:01.226Z,28.02
2022-12-04T14:38:27.809Z,18.92
2022-12-04T14:40:57.927Z,19.88
2022-12-04T14:43:28.229Z,24.08
2022-12-04T14:46:06.773Z,23.15
2022-12-04T14:49:14.685Z,19.90
2022-12-04T14:52:17.444Z,25.75
2022-12-04T14:55:17.457Z,22.40
2022-12-04T14:58:24.721Z,15.80
2022-12-04T15:00:55.438Z,24.67
2022-12-04T15:03:22.589Z,22.90
2022-12-04T15:05:50.774Z,24.23
2022-12-04T15:08:17.164Z,22.02
2022-12-04T15:11:08.789Z,25.48
2022-12-04T15:13:37.464Z,21.40
2022-12-04T15:16:16.195Z,14.80
2022-12-04T15:18:59.676Z,25.80
2022-12-04T15:21:39.594Z,26.45
2022-12-04T15:24:11.105Z,24.90
2022-12-04T15:26:39.124Z,20.17
2022-12-04T15:29:08.182Z,26.08
2022-12-04T15:31:43.390Z,22.50
2022-12-04T15:34:16.962Z,20.55
2022-12-04T15:36:50.690Z,22.88
2022-12-04T15:39:27.261Z,26.88
2022-12-04T15:42:15.099Z,25.73
2022-12-04T15:45:08.656Z,22.55
2022-12-04T15:47:51.516Z,28.48
2022-12-04T15:50:17.783Z,17.80
2022-12-04T15:53:21.272Z,28.02
2022-12-04T15:55:58.634Z,32.80
2022-12-04T15:58:34.040Z,21.98
2022-12-04T16:01:04.567Z,28.67
2022-12-04T16:03:46.653Z,26.83
2022-12-04T16:06:22.046Z,30.58
2022-12-04T16:08:56.800Z,33.22
2022-12-04T16:11:31.216Z,30.38
2022-12-04T16:14:14.154Z,26.80
2022-12-04T16:16:44.938Z,29.75
2022-12-04T16:19:27.364Z,27.80
2022-12-04T16:21:54.017Z,25.77
2022-12-04T16:27:15.888Z,11.18
2022-12-04T16:29:42.171Z,27.33
2022-12-04T16:32:14.246Z,30.30
2022-12-04T16:34:40.542Z,24.60
2022-12-04T16:37:26.986Z,34.58
2022-12-04T16:39:53.310Z,27.83
2022-12-04T16:42:21.153Z,23.85
2022-12-04T16:44:47.817Z,30.80
2022-12-04T16:47:15.064Z,32.13
2022-12-04T16:49:43.128Z,28.90
2022-12-04T16:52:11.310Z,34.40
2022-12-04T16:54:38.142Z,29.98
2022-12-04T16:57:04.530Z,27.83
2022-12-04T16:59:30.842Z,33.85
2022-12-04T17:01:57.953Z,31.48
2022-12-04T17:04:24.450Z,31.67
2022-12-04T17:06:50.871Z,32.38
2022-12-04T17:09:17.519Z,31.02
2022-12-04T17:11:44.031Z,31.10
2022-12-04T17:14:10.524Z,27.13
2022-12-04T17:16:43.051Z,28.73
2022-12-04T17:19:11.258Z,32.72
2022-12-04T17:21:38.306Z,28.15
2022-12-04T17:24:05.104Z,28.13
2022-12-04T17:26:32.073Z,30.38
2022-12-04T17:28:58.446Z,30.90
2022-12-04T17:31:26.131Z,28.98
2022-12-04T17:33:53.510Z,28.73
2022-12-04T17:36:22.162Z,34.10
2022-12-04T17:38:52.037Z,28.02
2022-12-04T17:41:18.349Z,29.38
2022-12-04T17:43:44.722Z,28.77
2022-12-04T17:46:14.030Z,27.38
2022-12-04T17:48:40.684Z,32.75
2022-12-04T17:51:15.597Z,25.17
2022-12-04T17:53:41.961Z,30.05
2022-12-04T17:56:11.290Z,27.10
2022-12-04T17:58:38.410Z,27.70
2022-12-04T18:01:11.086Z,28.08
2022-12-04T18:03:38.858Z,32.50
2022-12-04T18:06:18.908Z,25.52
2022-12-04T18:08:50.046Z,29.38
2022-12-04T18:11:20.288Z,28.45
2022-12-04T18:13:48.070Z,28.83
2022-12-04T18:16:14.585Z,24.50
2022-12-04T18:18:41.166Z,30.08
2022-12-04T18:21:10.980Z,28.25
2022-12-04T18:23:45.424Z,27.33
2022-12-04T18:26:13.937Z,29.60
2022-12-04T18:28:40.313Z,27.00
2022-12-04T18:31:08.341Z,28.88
2022-12-04T18:33:37.446Z,30.65
2022-12-04T18:36:05.176Z,30.45
2022-12-04T18:38:32.005Z,32.08
2022-12-04T18:41:16.633Z,31.65
2022-12-04T18:43:44.616Z,34.67
2022-12-04T18:46:14.605Z,31.98
2022-12-04T18:48:41.557Z,31.15
2022-12-04T18:51:21.122Z,37.03
2022-12-04T18:53:49.008Z,28.58
2022-12-04T18:56:16.576Z,34.20
2022-12-04T18:58:46.519Z,37.97
2022-12-04T19:01:16.445Z,33.17
2022-12-04T19:03:42.848Z,31.17
2022-12-04T19:06:09.468Z,33.85
2022-12-04T19:08:40.007Z,37.38
2022-12-04T19:11:12.294Z,39.08
2022-12-04T19:13:38.792Z,35.95
2022-12-04T19:16:10.251Z,32.58
2022-12-04T19:18:36.608Z,36.33
2022-12-04T19:21:05.949Z,38.67
2022-12-04T19:23:32.320Z,36.70
2022-12-04T19:26:00.381Z,38.38
2022-12-04T19:28:28.122Z,35.95
2022-12-04T19:30:54.923Z,35.50
2022-12-04T19:33:22.115Z,38.22
2022-12-04T19:36:06.912Z,30.35
2022-12-04T19:38:33.739Z,37.80
2022-12-04T19:41:12.772Z,40.05
2022-12-04T19:43:41.796Z,38.78
2022-12-04T19:46:09.824Z,38.55
2022-12-04T19:48:37.829Z,39.78
2022-12-04T19:51:15.821Z,41.80
2022-12-04T19:53:43.480Z,41.83
2022-12-04T19:56:16.061Z,41.13
2022-12-04T19:58:43.293Z,36.53
2022-12-04T20:01:12.954Z,42.47
2022-12-04T20:03:39.352Z,40.60
2022-12-04T20:06:09.384Z,40.83
2022-12-04T20:08:36.227Z,41.95
2022-12-04T20:11:19.333Z,43.92
2022-12-04T20:13:47.110Z,38.03
2022-12-04T20:16:17.862Z,31.58
2022-12-04T20:18:44.621Z,37.90
2022-12-04T20:21:12.580Z,37.47
2022-12-04T20:23:44.247Z,36.53
2022-12-04T20:26:13.125Z,36.58
2022-12-04T20:28:40.225Z,34.80
2022-12-04T20:31:18.735Z,33.53
2022-12-04T20:33:47.626Z,40.05
2022-12-04T20:36:15.591Z,36.75
2022-12-04T20:38:42.326Z,36.17
2022-12-04T20:41:10.731Z,32.95
2022-12-04T20:43:37.183Z,33.35
2022-12-04T20:46:20.215Z,39.53
2022-12-04T20:48:50.613Z,39.75
2022-12-04T20:51:19.570Z,40.40
2022-12-04T20:53:46.577Z,32.55
2022-12-04T20:56:13.581Z,35.72
2022-12-04T20:58:40.564Z,38.08
2022-12-04T21:01:13.418Z,33.85
2022-12-04T21:03:40.863Z,41.35
2022-12-04T21:06:16.430Z,37.53
2022-12-04T21:09:00.238Z,34.33
2022-12-04T21:11:31.470Z,35.53
2022-12-04T21:14:17.678Z,34.35
2022-12-04T21:16:45.474Z,33.95
2022-12-04T21:19:14.742Z,33.97
2022-12-04T21:21:41.235Z,39.30
2022-12-04T21:24:09.989Z,32.40
2022-12-04T21:26:36.468Z,40.60
2022-12-04T21:29:04.228Z,35.90
2022-12-04T21:31:31.174Z,41.10
2022-12-04T21:33:59.123Z,39.05
2022-12-04T21:36:27.148Z,31.08
2022-12-04T21:38:54.077Z,36.83
2022-12-04T21:41:39.737Z,38.63
2022-12-04T21:44:07.619Z,35.70
2022-12-04T21:46:34.360Z,35.90
2022-12-04T21:49:00.747Z,38.20
2022-12-04T21:51:55.719Z,32.80
2022-12-04T21:54:14.128Z,33.22
2022-12-04T21:56:40.416Z,37.08
2022-12-04T21:59:07.217Z,32.20
2022-12-04T22:01:33.719Z,33.72
2022-12-04T22:04:00.074Z,34.25
2022-12-04T22:06:27.157Z,35.83
2022-12-04T22:08:54.433Z,39.88
2022-12-04T22:11:21.149Z,32.67
2022-12-04T22:13:47.450Z,37.40
2022-12-04T22:16:15.716Z,38.80
2022-12-04T22:18:42.346Z,35.75
2022-12-04T22:21:11.894Z,31.65
2022-12-04T22:23:38.266Z,36.63
2022-12-04T22:26:15.799Z,35.72
2022-12-04T22:28:42.941Z,35.90
2022-12-04T22:31:15.769Z,37.95
2022-12-04T22:33:42.531Z,31.40
2022-12-04T22:36:11.487Z,35.40
2022-12-04T22:38:52.725Z,38.60
2022-12-04T22:41:26.383Z,34.08
2022-12-04T22:43:52.988Z,35.53
2022-12-04T22:46:19.502Z,34.30
2022-12-04T22:48:46.519Z,32.35
2022-12-04T22:51:16.404Z,34.35
2022-12-04T22:53:45.425Z,34.05
2022-12-04T22:56:21.245Z,32.33
2022-12-04T22:58:47.626Z,32.33
2022-12-04T23:01:19.455Z,27.55
2022-12-04T23:03:46.890Z,32.45
2022-12-04T23:06:14.562Z,32.85
2022-12-04T23:08:42.182Z,32.50
2022-12-04T23:11:14.715Z,33.22
2022-12-04T23:13:41.512Z,30.83
2022-12-04T23:16:09.881Z,28.75
2022-12-04T23:18:37.568Z,32.65
2022-12-04T23:21:10.239Z,31.58
2022-12-04T23:23:39.195Z,33.45
2022-12-04T23:26:14.494Z,33.25
2022-12-04T23:28:41.031Z,31.38
2022-12-04T23:31:08.206Z,33.53
2022-12-04T23:33:34.617Z,29.95
2022-12-04T23:36:02.571Z,36.45
2022-12-04T23:38:29.760Z,31.60
2022-12-04T23:41:08.580Z,30.15
2022-12-04T23:43:35.315Z,31.25
2022-12-04T23:46:05.881Z,33.15
2022-12-04T23:48:37.481Z,33.70
2022-12-04T23:51:03.887Z,33.63
2022-12-04T23:53:30.195Z,36.63
2022-12-04T23:56:02.822Z,39.80
2022-12-04T23:58:29.106Z,36.45
